KARB

Details ICAO KARB (ARB)
Name Ann Arbor Muni
Region United States
Timezone America/Detroit (UTC-4.0)
Plans Departing 68
Arriving 24
Stats Elevation 839 ft / 256 m (AMSL)
Location 42.222969° -83.745698°
Runways 2
Magnetic Variation 7.020° W
Sunrise 2018-05-24 10:07:29 UTC / 2018-05-24 06:07:29 Local
Sunset 2018-05-25 00:59:04 UTC / 2018-05-24 20:59:04 Local
Advertisement - Login to hide

Runways

ID Width Length Bearing (true) Bearing (mag) Surface Threshold Offset Overrun Length
06 75 ft / 23 m 3,501 ft / 1,067 m 54.42° 61.44° Concrete 0 ft / 0 m 0 ft / 0 m
12 112 ft / 34 m 2,796 ft / 852 m 122.28° 129.30° Grass 0 ft / 0 m 0 ft / 0 m
24 75 ft / 23 m 3,501 ft / 1,067 m 234.43° 241.45° Concrete 0 ft / 0 m 0 ft / 0 m
30 112 ft / 34 m 2,796 ft / 852 m 302.28° 309.30° Grass 0 ft / 0 m 0 ft / 0 m

Map

Weather


0- 5 10 15 20 25 30 35+ Temperature / ° C

Clouds and Precipitation
Forecast for 2018-05-24 18:00 UTC. Updated 4 minutes ago

Ground ~20,000 ft ~40,000 ft Winds

METAR

KARB 241653Z 16007KT 10SM CLR 26/09 A3022 RMK AO2 SLP229 T02610089

TAF

Not found

Frequencies

Recorded 134.55 MHz ASOS
Unicom 123.00 MHz UNICOM
Tower 120.30 MHz TWR
Unicom 120.30 MHz CTAF
Ground 121.60 MHz GND/CLNC DEL
Approach 118.95 MHz DETROIT APP/DEP
Warning: Do not use this data for real-world aviation or navigation. No guarantee of current accuracy is given.